sensor_id;sensor_type;location;lat;lon;timestamp;P1;durP1;ratioP1;P2;durP2;ratioP2
18947;SDS011;9607;51.600;7.558;2022-12-07T00:01:44;29.48;;;21.90;;
18947;SDS011;9607;51.600;7.558;2022-12-07T00:04:13;27.70;;;20.15;;
18947;SDS011;9607;51.600;7.558;2022-12-07T00:06:41;26.88;;;19.92;;
18947;SDS011;9607;51.600;7.558;2022-12-07T00:09:09;25.65;;;19.80;;
18947;SDS011;9607;51.600;7.558;2022-12-07T00:11:38;22.25;;;18.70;;
18947;SDS011;9607;51.600;7.558;2022-12-07T00:14:06;25.40;;;18.27;;
18947;SDS011;9607;51.600;7.558;2022-12-07T00:16:34;24.25;;;18.88;;
18947;SDS011;9607;51.600;7.558;2022-12-07T00:19:02;27.33;;;17.25;;
18947;SDS011;9607;51.600;7.558;2022-12-07T00:21:30;22.63;;;17.30;;
18947;SDS011;9607;51.600;7.558;2022-12-07T00:23:59;24.05;;;17.23;;
18947;SDS011;9607;51.600;7.558;2022-12-07T00:26:27;20.20;;;16.13;;
18947;SDS011;9607;51.600;7.558;2022-12-07T00:28:57;21.40;;;16.63;;
18947;SDS011;9607;51.600;7.558;2022-12-07T00:31:27;19.23;;;16.02;;
18947;SDS011;9607;51.600;7.558;2022-12-07T00:33:55;22.77;;;17.02;;
18947;SDS011;9607;51.600;7.558;2022-12-07T00:36:25;19.67;;;16.65;;
18947;SDS011;9607;51.600;7.558;2022-12-07T00:38:52;23.00;;;17.98;;
18947;SDS011;9607;51.600;7.558;2022-12-07T00:41:20;22.98;;;17.30;;
18947;SDS011;9607;51.600;7.558;2022-12-07T00:43:48;21.98;;;17.95;;
18947;SDS011;9607;51.600;7.558;2022-12-07T00:46:16;20.65;;;17.85;;
18947;SDS011;9607;51.600;7.558;2022-12-07T00:48:43;21.15;;;17.30;;
18947;SDS011;9607;51.600;7.558;2022-12-07T00:51:11;21.55;;;17.98;;
18947;SDS011;9607;51.600;7.558;2022-12-07T00:53:40;23.35;;;18.35;;
18947;SDS011;9607;51.600;7.558;2022-12-07T00:56:08;26.00;;;18.95;;
18947;SDS011;9607;51.600;7.558;2022-12-07T00:58:36;22.13;;;18.42;;
18947;SDS011;9607;51.600;7.558;2022-12-07T01:01:03;23.73;;;19.85;;
18947;SDS011;9607;51.600;7.558;2022-12-07T01:03:30;26.30;;;19.45;;
18947;SDS011;9607;51.600;7.558;2022-12-07T01:05:58;25.40;;;20.83;;
18947;SDS011;9607;51.600;7.558;2022-12-07T01:08:26;23.42;;;19.30;;
18947;SDS011;9607;51.600;7.558;2022-12-07T01:10:58;26.70;;;19.75;;
18947;SDS011;9607;51.600;7.558;2022-12-07T01:13:26;23.35;;;18.98;;
18947;SDS011;9607;51.600;7.558;2022-12-07T01:15:55;25.23;;;19.23;;
18947;SDS011;9607;51.600;7.558;2022-12-07T01:18:24;23.38;;;19.10;;
18947;SDS011;9607;51.600;7.558;2022-12-07T01:20:58;26.88;;;20.35;;
18947;SDS011;9607;51.600;7.558;2022-12-07T01:23:26;25.92;;;20.48;;
18947;SDS011;9607;51.600;7.558;2022-12-07T01:25:56;28.00;;;20.52;;
18947;SDS011;9607;51.600;7.558;2022-12-07T01:28:24;28.90;;;21.08;;
18947;SDS011;9607;51.600;7.558;2022-12-07T01:30:55;25.30;;;20.75;;
18947;SDS011;9607;51.600;7.558;2022-12-07T01:33:23;27.27;;;21.25;;
18947;SDS011;9607;51.600;7.558;2022-12-07T01:35:50;27.17;;;21.75;;
18947;SDS011;9607;51.600;7.558;2022-12-07T01:38:17;26.75;;;20.20;;
18947;SDS011;9607;51.600;7.558;2022-12-07T01:40:44;27.13;;;20.42;;
18947;SDS011;9607;51.600;7.558;2022-12-07T01:43:13;26.73;;;19.55;;
18947;SDS011;9607;51.600;7.558;2022-12-07T01:45:44;29.23;;;19.98;;
18947;SDS011;9607;51.600;7.558;2022-12-07T01:48:12;27.85;;;19.10;;
18947;SDS011;9607;51.600;7.558;2022-12-07T01:50:43;21.88;;;18.00;;
18947;SDS011;9607;51.600;7.558;2022-12-07T01:53:13;25.38;;;20.05;;
18947;SDS011;9607;51.600;7.558;2022-12-07T01:55:42;29.20;;;20.75;;
18947;SDS011;9607;51.600;7.558;2022-12-07T01:58:11;26.77;;;20.33;;
18947;SDS011;9607;51.600;7.558;2022-12-07T02:00:39;25.58;;;20.55;;
18947;SDS011;9607;51.600;7.558;2022-12-07T02:03:10;29.02;;;23.05;;
18947;SDS011;9607;51.600;7.558;2022-12-07T02:05:41;29.90;;;22.52;;
18947;SDS011;9607;51.600;7.558;2022-12-07T02:08:09;27.92;;;21.27;;
18947;SDS011;9607;51.600;7.558;2022-12-07T02:10:41;28.33;;;21.92;;
18947;SDS011;9607;51.600;7.558;2022-12-07T02:13:09;31.58;;;21.60;;
18947;SDS011;9607;51.600;7.558;2022-12-07T02:15:42;32.88;;;21.50;;
18947;SDS011;9607;51.600;7.558;2022-12-07T02:18:19;29.02;;;22.05;;
18947;SDS011;9607;51.600;7.558;2022-12-07T02:20:53;28.73;;;21.42;;
18947;SDS011;9607;51.600;7.558;2022-12-07T02:26:39;26.60;;;20.48;;
18947;SDS011;9607;51.600;7.558;2022-12-07T02:29:21;32.60;;;23.35;;
18947;SDS011;9607;51.600;7.558;2022-12-07T02:31:53;34.45;;;24.90;;
18947;SDS011;9607;51.600;7.558;2022-12-07T02:34:28;31.50;;;23.52;;
18947;SDS011;9607;51.600;7.558;2022-12-07T02:37:02;30.35;;;23.83;;
18947;SDS011;9607;51.600;7.558;2022-12-07T02:39:37;25.98;;;21.17;;
18947;SDS011;9607;51.600;7.558;2022-12-07T02:42:09;39.45;;;23.40;;
18947;SDS011;9607;51.600;7.558;2022-12-07T02:44:42;30.33;;;23.02;;
18947;SDS011;9607;51.600;7.558;2022-12-07T02:47:12;33.10;;;23.17;;
18947;SDS011;9607;51.600;7.558;2022-12-07T02:49:43;34.88;;;24.35;;
18947;SDS011;9607;51.600;7.558;2022-12-07T02:52:10;35.28;;;23.58;;
18947;SDS011;9607;51.600;7.558;2022-12-07T02:54:37;27.98;;;21.70;;
18947;SDS011;9607;51.600;7.558;2022-12-07T02:57:06;31.42;;;22.90;;
18947;SDS011;9607;51.600;7.558;2022-12-07T02:59:46;29.20;;;22.00;;
18947;SDS011;9607;51.600;7.558;2022-12-07T03:02:25;30.85;;;22.85;;
18947;SDS011;9607;51.600;7.558;2022-12-07T03:05:05;27.98;;;22.27;;
18947;SDS011;9607;51.600;7.558;2022-12-07T03:07:43;31.90;;;21.98;;
18947;SDS011;9607;51.600;7.558;2022-12-07T03:10:19;35.28;;;22.77;;
18947;SDS011;9607;51.600;7.558;2022-12-07T03:12:53;32.05;;;23.80;;
18947;SDS011;9607;51.600;7.558;2022-12-07T03:15:31;30.08;;;22.25;;
18947;SDS011;9607;51.600;7.558;2022-12-07T03:18:05;31.25;;;22.13;;
18947;SDS011;9607;51.600;7.558;2022-12-07T03:20:35;32.53;;;23.40;;
18947;SDS011;9607;51.600;7.558;2022-12-07T03:23:07;33.85;;;23.27;;
18947;SDS011;9607;51.600;7.558;2022-12-07T03:25:39;29.75;;;21.13;;
18947;SDS011;9607;51.600;7.558;2022-12-07T03:28:11;28.73;;;21.08;;
18947;SDS011;9607;51.600;7.558;2022-12-07T03:30:44;37.20;;;23.67;;
18947;SDS011;9607;51.600;7.558;2022-12-07T03:33:17;36.80;;;25.60;;
18947;SDS011;9607;51.600;7.558;2022-12-07T03:35:47;38.35;;;25.73;;
18947;SDS011;9607;51.600;7.558;2022-12-07T03:38:18;39.30;;;25.27;;
18947;SDS011;9607;51.600;7.558;2022-12-07T03:40:50;34.00;;;23.33;;
18947;SDS011;9607;51.600;7.558;2022-12-07T03:43:24;36.25;;;23.38;;
18947;SDS011;9607;51.600;7.558;2022-12-07T03:45:59;40.30;;;25.83;;
18947;SDS011;9607;51.600;7.558;2022-12-07T03:48:33;39.03;;;25.58;;
18947;SDS011;9607;51.600;7.558;2022-12-07T03:51:06;40.05;;;26.65;;
18947;SDS011;9607;51.600;7.558;2022-12-07T03:53:39;40.13;;;25.27;;
18947;SDS011;9607;51.600;7.558;2022-12-07T03:56:10;38.13;;;26.02;;
18947;SDS011;9607;51.600;7.558;2022-12-07T03:58:38;42.38;;;25.73;;
18947;SDS011;9607;51.600;7.558;2022-12-07T04:01:09;41.22;;;25.80;;
18947;SDS011;9607;51.600;7.558;2022-12-07T04:03:43;41.53;;;26.73;;
18947;SDS011;9607;51.600;7.558;2022-12-07T04:06:10;40.58;;;25.67;;
18947;SDS011;9607;51.600;7.558;2022-12-07T04:08:37;41.15;;;25.67;;
18947;SDS011;9607;51.600;7.558;2022-12-07T04:11:05;44.00;;;25.52;;
18947;SDS011;9607;51.600;7.558;2022-12-07T04:13:31;38.53;;;25.40;;
18947;SDS011;9607;51.600;7.558;2022-12-07T04:16:23;44.05;;;26.45;;
18947;SDS011;9607;51.600;7.558;2022-12-07T04:18:50;40.47;;;24.77;;
18947;SDS011;9607;51.600;7.558;2022-12-07T04:21:16;40.10;;;24.02;;
18947;SDS011;9607;51.600;7.558;2022-12-07T04:23:43;38.90;;;24.98;;
18947;SDS011;9607;51.600;7.558;2022-12-07T04:26:10;39.33;;;25.05;;
18947;SDS011;9607;51.600;7.558;2022-12-07T04:28:37;36.50;;;24.65;;
18947;SDS011;9607;51.600;7.558;2022-12-07T04:31:04;40.30;;;25.83;;
18947;SDS011;9607;51.600;7.558;2022-12-07T04:33:32;36.55;;;25.48;;
18947;SDS011;9607;51.600;7.558;2022-12-07T04:35:59;45.05;;;25.70;;
18947;SDS011;9607;51.600;7.558;2022-12-07T04:38:26;38.38;;;24.85;;
18947;SDS011;9607;51.600;7.558;2022-12-07T04:40:53;39.22;;;24.05;;
18947;SDS011;9607;51.600;7.558;2022-12-07T04:43:19;42.80;;;24.98;;
18947;SDS011;9607;51.600;7.558;2022-12-07T04:45:46;40.35;;;24.70;;
18947;SDS011;9607;51.600;7.558;2022-12-07T04:48:14;40.40;;;25.23;;
18947;SDS011;9607;51.600;7.558;2022-12-07T04:50:44;50.08;;;26.13;;
18947;SDS011;9607;51.600;7.558;2022-12-07T04:53:15;46.15;;;26.45;;
18947;SDS011;9607;51.600;7.558;2022-12-07T04:55:41;42.17;;;24.90;;
18947;SDS011;9607;51.600;7.558;2022-12-07T04:58:08;40.80;;;24.98;;
18947;SDS011;9607;51.600;7.558;2022-12-07T05:00:35;41.85;;;26.08;;
18947;SDS011;9607;51.600;7.558;2022-12-07T05:03:02;36.92;;;23.80;;
18947;SDS011;9607;51.600;7.558;2022-12-07T05:05:29;33.55;;;23.77;;
18947;SDS011;9607;51.600;7.558;2022-12-07T05:07:57;38.33;;;24.00;;
18947;SDS011;9607;51.600;7.558;2022-12-07T05:10:24;35.78;;;23.00;;
18947;SDS011;9607;51.600;7.558;2022-12-07T05:12:51;37.25;;;25.13;;
18947;SDS011;9607;51.600;7.558;2022-12-07T05:15:17;33.13;;;22.73;;
18947;SDS011;9607;51.600;7.558;2022-12-07T05:17:44;31.05;;;20.92;;
18947;SDS011;9607;51.600;7.558;2022-12-07T05:20:11;44.80;;;24.17;;
18947;SDS011;9607;51.600;7.558;2022-12-07T05:22:43;37.50;;;22.90;;
18947;SDS011;9607;51.600;7.558;2022-12-07T05:25:19;34.22;;;21.65;;
18947;SDS011;9607;51.600;7.558;2022-12-07T05:27:59;35.47;;;22.05;;
18947;SDS011;9607;51.600;7.558;2022-12-07T05:30:26;35.03;;;22.00;;
18947;SDS011;9607;51.600;7.558;2022-12-07T05:32:53;36.60;;;23.73;;
18947;SDS011;9607;51.600;7.558;2022-12-07T05:35:20;34.95;;;21.10;;
18947;SDS011;9607;51.600;7.558;2022-12-07T05:37:47;37.20;;;23.52;;
18947;SDS011;9607;51.600;7.558;2022-12-07T05:40:19;36.75;;;23.77;;
18947;SDS011;9607;51.600;7.558;2022-12-07T05:42:46;41.30;;;22.50;;
18947;SDS011;9607;51.600;7.558;2022-12-07T05:45:13;38.58;;;22.25;;
18947;SDS011;9607;51.600;7.558;2022-12-07T05:47:40;34.38;;;22.45;;
18947;SDS011;9607;51.600;7.558;2022-12-07T05:50:07;39.30;;;23.85;;
18947;SDS011;9607;51.600;7.558;2022-12-07T05:52:34;35.78;;;23.23;;
18947;SDS011;9607;51.600;7.558;2022-12-07T05:55:01;36.88;;;22.20;;
18947;SDS011;9607;51.600;7.558;2022-12-07T05:57:29;33.25;;;21.50;;
18947;SDS011;9607;51.600;7.558;2022-12-07T05:59:56;35.10;;;22.23;;
18947;SDS011;9607;51.600;7.558;2022-12-07T06:02:22;35.85;;;20.98;;
18947;SDS011;9607;51.600;7.558;2022-12-07T06:04:48;34.53;;;21.63;;
18947;SDS011;9607;51.600;7.558;2022-12-07T06:07:16;35.92;;;23.30;;
18947;SDS011;9607;51.600;7.558;2022-12-07T06:09:43;29.23;;;20.70;;
18947;SDS011;9607;51.600;7.558;2022-12-07T06:12:11;29.13;;;19.10;;
18947;SDS011;9607;51.600;7.558;2022-12-07T06:14:57;37.10;;;21.27;;
18947;SDS011;9607;51.600;7.558;2022-12-07T06:17:24;30.35;;;20.70;;
18947;SDS011;9607;51.600;7.558;2022-12-07T06:19:51;27.50;;;19.20;;
18947;SDS011;9607;51.600;7.558;2022-12-07T06:22:18;32.83;;;20.35;;
18947;SDS011;9607;51.600;7.558;2022-12-07T06:24:45;29.45;;;20.15;;
18947;SDS011;9607;51.600;7.558;2022-12-07T06:27:12;28.52;;;19.42;;
18947;SDS011;9607;51.600;7.558;2022-12-07T06:29:39;34.35;;;20.90;;
18947;SDS011;9607;51.600;7.558;2022-12-07T06:32:07;30.08;;;19.92;;
18947;SDS011;9607;51.600;7.558;2022-12-07T06:34:34;32.17;;;19.90;;
18947;SDS011;9607;51.600;7.558;2022-12-07T06:37:01;35.08;;;19.98;;
18947;SDS011;9607;51.600;7.558;2022-12-07T06:39:28;32.40;;;21.27;;
18947;SDS011;9607;51.600;7.558;2022-12-07T06:41:55;31.15;;;19.63;;
18947;SDS011;9607;51.600;7.558;2022-12-07T06:44:23;37.50;;;20.40;;
18947;SDS011;9607;51.600;7.558;2022-12-07T06:46:50;30.70;;;20.92;;
18947;SDS011;9607;51.600;7.558;2022-12-07T06:49:19;38.25;;;21.35;;
18947;SDS011;9607;51.600;7.558;2022-12-07T06:51:46;32.50;;;20.23;;
18947;SDS011;9607;51.600;7.558;2022-12-07T06:54:13;32.78;;;21.38;;
18947;SDS011;9607;51.600;7.558;2022-12-07T06:56:41;31.08;;;18.45;;
18947;SDS011;9607;51.600;7.558;2022-12-07T06:59:10;30.50;;;19.08;;
18947;SDS011;9607;51.600;7.558;2022-12-07T07:01:37;32.75;;;20.13;;
18947;SDS011;9607;51.600;7.558;2022-12-07T07:04:05;33.17;;;20.30;;
18947;SDS011;9607;51.600;7.558;2022-12-07T07:06:33;34.78;;;20.98;;
18947;SDS011;9607;51.600;7.558;2022-12-07T07:09:00;29.10;;;19.05;;
18947;SDS011;9607;51.600;7.558;2022-12-07T07:11:27;28.60;;;19.65;;
18947;SDS011;9607;51.600;7.558;2022-12-07T07:13:54;32.42;;;19.50;;
18947;SDS011;9607;51.600;7.558;2022-12-07T07:16:27;32.63;;;19.63;;
18947;SDS011;9607;51.600;7.558;2022-12-07T07:18:54;27.50;;;18.90;;
18947;SDS011;9607;51.600;7.558;2022-12-07T07:21:20;31.33;;;18.98;;
18947;SDS011;9607;51.600;7.558;2022-12-07T07:23:49;35.35;;;18.75;;
18947;SDS011;9607;51.600;7.558;2022-12-07T07:26:15;31.50;;;18.40;;
18947;SDS011;9607;51.600;7.558;2022-12-07T07:28:43;30.67;;;17.75;;
18947;SDS011;9607;51.600;7.558;2022-12-07T07:31:10;26.85;;;18.33;;
18947;SDS011;9607;51.600;7.558;2022-12-07T07:33:37;28.70;;;17.60;;
18947;SDS011;9607;51.600;7.558;2022-12-07T07:36:04;30.55;;;18.40;;
18947;SDS011;9607;51.600;7.558;2022-12-07T07:38:32;29.35;;;18.13;;
18947;SDS011;9607;51.600;7.558;2022-12-07T07:41:00;28.50;;;17.83;;
18947;SDS011;9607;51.600;7.558;2022-12-07T07:43:27;31.85;;;18.25;;
18947;SDS011;9607;51.600;7.558;2022-12-07T07:45:54;30.98;;;18.13;;
18947;SDS011;9607;51.600;7.558;2022-12-07T07:48:20;28.73;;;18.95;;
18947;SDS011;9607;51.600;7.558;2022-12-07T07:50:50;28.95;;;17.67;;
18947;SDS011;9607;51.600;7.558;2022-12-07T07:53:17;28.25;;;18.20;;
18947;SDS011;9607;51.600;7.558;2022-12-07T07:55:49;29.08;;;18.90;;
18947;SDS011;9607;51.600;7.558;2022-12-07T07:58:18;29.73;;;17.17;;
18947;SDS011;9607;51.600;7.558;2022-12-07T08:00:45;30.55;;;18.30;;
18947;SDS011;9607;51.600;7.558;2022-12-07T08:03:12;29.70;;;19.77;;
18947;SDS011;9607;51.600;7.558;2022-12-07T08:05:39;24.85;;;17.52;;
18947;SDS011;9607;51.600;7.558;2022-12-07T08:08:06;23.52;;;16.77;;
18947;SDS011;9607;51.600;7.558;2022-12-07T08:10:33;28.60;;;16.70;;
18947;SDS011;9607;51.600;7.558;2022-12-07T08:13:00;25.42;;;15.25;;
18947;SDS011;9607;51.600;7.558;2022-12-07T08:15:41;26.35;;;16.13;;
18947;SDS011;9607;51.600;7.558;2022-12-07T08:18:09;23.00;;;15.73;;
18947;SDS011;9607;51.600;7.558;2022-12-07T08:20:36;28.60;;;16.67;;
18947;SDS011;9607;51.600;7.558;2022-12-07T08:23:04;23.55;;;16.13;;
18947;SDS011;9607;51.600;7.558;2022-12-07T08:25:32;22.45;;;16.88;;
18947;SDS011;9607;51.600;7.558;2022-12-07T08:27:59;29.88;;;17.63;;
18947;SDS011;9607;51.600;7.558;2022-12-07T08:30:27;31.70;;;17.58;;
18947;SDS011;9607;51.600;7.558;2022-12-07T08:32:56;23.63;;;16.25;;
18947;SDS011;9607;51.600;7.558;2022-12-07T08:35:23;31.15;;;18.23;;
18947;SDS011;9607;51.600;7.558;2022-12-07T08:37:51;27.13;;;17.25;;
18947;SDS011;9607;51.600;7.558;2022-12-07T08:40:18;23.38;;;15.80;;
18947;SDS011;9607;51.600;7.558;2022-12-07T08:42:48;25.38;;;16.23;;
18947;SDS011;9607;51.600;7.558;2022-12-07T08:45:16;20.17;;;15.50;;
18947;SDS011;9607;51.600;7.558;2022-12-07T08:47:45;23.40;;;13.75;;
18947;SDS011;9607;51.600;7.558;2022-12-07T08:50:18;23.02;;;13.85;;
18947;SDS011;9607;51.600;7.558;2022-12-07T08:52:47;23.23;;;13.13;;
18947;SDS011;9607;51.600;7.558;2022-12-07T08:55:16;23.08;;;13.15;;
18947;SDS011;9607;51.600;7.558;2022-12-07T08:57:44;20.67;;;12.85;;
18947;SDS011;9607;51.600;7.558;2022-12-07T09:00:12;16.80;;;11.13;;
18947;SDS011;9607;51.600;7.558;2022-12-07T09:02:39;21.92;;;12.30;;
18947;SDS011;9607;51.600;7.558;2022-12-07T09:05:09;14.43;;;9.82;;
18947;SDS011;9607;51.600;7.558;2022-12-07T09:07:37;18.15;;;10.60;;
18947;SDS011;9607;51.600;7.558;2022-12-07T09:10:05;19.88;;;12.02;;
18947;SDS011;9607;51.600;7.558;2022-12-07T09:12:33;18.58;;;11.10;;
18947;SDS011;9607;51.600;7.558;2022-12-07T09:15:00;26.02;;;11.60;;
18947;SDS011;9607;51.600;7.558;2022-12-07T09:17:27;20.60;;;11.63;;
18947;SDS011;9607;51.600;7.558;2022-12-07T09:19:59;17.70;;;10.98;;
18947;SDS011;9607;51.600;7.558;2022-12-07T09:22:28;20.40;;;10.73;;
18947;SDS011;9607;51.600;7.558;2022-12-07T09:24:56;18.70;;;11.60;;
18947;SDS011;9607;51.600;7.558;2022-12-07T09:27:23;17.83;;;11.68;;
18947;SDS011;9607;51.600;7.558;2022-12-07T09:29:50;19.40;;;11.02;;
18947;SDS011;9607;51.600;7.558;2022-12-07T09:32:17;17.65;;;11.20;;
18947;SDS011;9607;51.600;7.558;2022-12-07T09:34:44;20.08;;;11.95;;
18947;SDS011;9607;51.600;7.558;2022-12-07T09:37:11;19.92;;;11.38;;
18947;SDS011;9607;51.600;7.558;2022-12-07T09:39:38;16.05;;;11.00;;
18947;SDS011;9607;51.600;7.558;2022-12-07T09:42:07;20.25;;;11.85;;
18947;SDS011;9607;51.600;7.558;2022-12-07T09:44:36;16.73;;;9.70;;
18947;SDS011;9607;51.600;7.558;2022-12-07T09:47:02;19.45;;;10.38;;
18947;SDS011;9607;51.600;7.558;2022-12-07T09:49:30;17.88;;;10.07;;
18947;SDS011;9607;51.600;7.558;2022-12-07T09:51:59;16.67;;;9.50;;
18947;SDS011;9607;51.600;7.558;2022-12-07T09:54:28;18.80;;;8.35;;
18947;SDS011;9607;51.600;7.558;2022-12-07T09:56:56;16.63;;;8.38;;
18947;SDS011;9607;51.600;7.558;2022-12-07T09:59:25;14.27;;;8.40;;
18947;SDS011;9607;51.600;7.558;2022-12-07T10:01:52;13.50;;;8.35;;
18947;SDS011;9607;51.600;7.558;2022-12-07T10:04:19;15.23;;;7.82;;
18947;SDS011;9607;51.600;7.558;2022-12-07T10:06:51;15.75;;;8.45;;
18947;SDS011;9607;51.600;7.558;2022-12-07T10:09:18;15.60;;;7.80;;
18947;SDS011;9607;51.600;7.558;2022-12-07T10:12:00;9.30;;;6.00;;
18947;SDS011;9607;51.600;7.558;2022-12-07T10:14:30;16.50;;;6.40;;
18947;SDS011;9607;51.600;7.558;2022-12-07T10:17:00;15.55;;;6.53;;
18947;SDS011;9607;51.600;7.558;2022-12-07T10:19:27;19.92;;;6.65;;
18947;SDS011;9607;51.600;7.558;2022-12-07T10:21:59;9.02;;;5.47;;
18947;SDS011;9607;51.600;7.558;2022-12-07T10:24:28;14.75;;;6.05;;
18947;SDS011;9607;51.600;7.558;2022-12-07T10:26:55;10.55;;;5.57;;
18947;SDS011;9607;51.600;7.558;2022-12-07T10:29:23;11.75;;;5.95;;
18947;SDS011;9607;51.600;7.558;2022-12-07T10:31:56;12.00;;;5.97;;
18947;SDS011;9607;51.600;7.558;2022-12-07T10:34:27;11.20;;;6.30;;
18947;SDS011;9607;51.600;7.558;2022-12-07T10:37:06;8.73;;;5.82;;
18947;SDS011;9607;51.600;7.558;2022-12-07T10:39:41;10.85;;;6.05;;
18947;SDS011;9607;51.600;7.558;2022-12-07T10:42:15;14.32;;;6.20;;
18947;SDS011;9607;51.600;7.558;2022-12-07T10:44:44;10.10;;;6.20;;
18947;SDS011;9607;51.600;7.558;2022-12-07T10:50:06;13.10;;;5.78;;
18947;SDS011;9607;51.600;7.558;2022-12-07T10:53:13;12.48;;;5.43;;
18947;SDS011;9607;51.600;7.558;2022-12-07T10:56:10;15.02;;;5.50;;
18947;SDS011;9607;51.600;7.558;2022-12-07T10:58:59;9.07;;;4.35;;
18947;SDS011;9607;51.600;7.558;2022-12-07T11:01:38;9.95;;;4.80;;
18947;SDS011;9607;51.600;7.558;2022-12-07T11:04:19;9.00;;;4.78;;
18947;SDS011;9607;51.600;7.558;2022-12-07T11:06:54;8.48;;;4.97;;
18947;SDS011;9607;51.600;7.558;2022-12-07T11:09:35;12.95;;;4.80;;
18947;SDS011;9607;51.600;7.558;2022-12-07T11:12:20;13.95;;;4.93;;
18947;SDS011;9607;51.600;7.558;2022-12-07T11:14:54;11.63;;;5.32;;
18947;SDS011;9607;51.600;7.558;2022-12-07T11:17:29;8.10;;;3.92;;
18947;SDS011;9607;51.600;7.558;2022-12-07T11:20:05;6.85;;;3.72;;
18947;SDS011;9607;51.600;7.558;2022-12-07T11:22:46;10.07;;;3.25;;
18947;SDS011;9607;51.600;7.558;2022-12-07T11:25:21;9.63;;;3.38;;
18947;SDS011;9607;51.600;7.558;2022-12-07T11:28:00;6.93;;;2.55;;
18947;SDS011;9607;51.600;7.558;2022-12-07T11:30:37;6.90;;;3.08;;
18947;SDS011;9607;51.600;7.558;2022-12-07T11:33:14;6.45;;;3.17;;
18947;SDS011;9607;51.600;7.558;2022-12-07T11:35:52;7.65;;;3.20;;
18947;SDS011;9607;51.600;7.558;2022-12-07T11:38:32;5.68;;;3.50;;
18947;SDS011;9607;51.600;7.558;2022-12-07T11:41:04;7.53;;;3.05;;
18947;SDS011;9607;51.600;7.558;2022-12-07T11:43:45;9.57;;;3.42;;
18947;SDS011;9607;51.600;7.558;2022-12-07T11:46:22;6.25;;;3.17;;
18947;SDS011;9607;51.600;7.558;2022-12-07T11:48:54;6.93;;;3.58;;
18947;SDS011;9607;51.600;7.558;2022-12-07T11:51:26;6.50;;;3.75;;
18947;SDS011;9607;51.600;7.558;2022-12-07T11:54:01;6.80;;;3.10;;
18947;SDS011;9607;51.600;7.558;2022-12-07T11:56:29;9.20;;;3.30;;
18947;SDS011;9607;51.600;7.558;2022-12-07T11:59:02;9.85;;;4.10;;
18947;SDS011;9607;51.600;7.558;2022-12-07T12:01:39;5.07;;;3.20;;
18947;SDS011;9607;51.600;7.558;2022-12-07T12:04:17;10.65;;;3.90;;
18947;SDS011;9607;51.600;7.558;2022-12-07T12:06:54;7.70;;;3.22;;
18947;SDS011;9607;51.600;7.558;2022-12-07T12:09:22;7.07;;;3.67;;
18947;SDS011;9607;51.600;7.558;2022-12-07T12:12:01;8.07;;;3.70;;
18947;SDS011;9607;51.600;7.558;2022-12-07T12:14:54;11.23;;;4.10;;
18947;SDS011;9607;51.600;7.558;2022-12-07T12:17:40;10.88;;;4.18;;
18947;SDS011;9607;51.600;7.558;2022-12-07T12:20:24;5.22;;;2.55;;
18947;SDS011;9607;51.600;7.558;2022-12-07T12:22:58;6.90;;;2.97;;
18947;SDS011;9607;51.600;7.558;2022-12-07T12:25:34;8.75;;;3.17;;
18947;SDS011;9607;51.600;7.558;2022-12-07T12:28:05;8.02;;;3.42;;
18947;SDS011;9607;51.600;7.558;2022-12-07T12:30:34;8.25;;;2.78;;
18947;SDS011;9607;51.600;7.558;2022-12-07T12:33:05;8.00;;;3.08;;
18947;SDS011;9607;51.600;7.558;2022-12-07T12:35:39;4.82;;;2.75;;
18947;SDS011;9607;51.600;7.558;2022-12-07T12:40:58;7.07;;;2.58;;
18947;SDS011;9607;51.600;7.558;2022-12-07T12:43:48;6.75;;;2.85;;
18947;SDS011;9607;51.600;7.558;2022-12-07T12:46:36;3.85;;;1.90;;
18947;SDS011;9607;51.600;7.558;2022-12-07T12:55:46;8.30;;;2.83;;
18947;SDS011;9607;51.600;7.558;2022-12-07T12:58:30;2.80;;;1.80;;
18947;SDS011;9607;51.600;7.558;2022-12-07T13:04:18;6.07;;;2.30;;
18947;SDS011;9607;51.600;7.558;2022-12-07T13:06:56;6.32;;;2.28;;
18947;SDS011;9607;51.600;7.558;2022-12-07T13:09:24;6.10;;;2.67;;
18947;SDS011;9607;51.600;7.558;2022-12-07T13:11:57;8.35;;;2.35;;
18947;SDS011;9607;51.600;7.558;2022-12-07T13:14:41;6.07;;;2.15;;
18947;SDS011;9607;51.600;7.558;2022-12-07T13:17:09;6.90;;;2.40;;
18947;SDS011;9607;51.600;7.558;2022-12-07T13:25:18;6.95;;;2.53;;
18947;SDS011;9607;51.600;7.558;2022-12-07T13:27:55;8.98;;;3.00;;
18947;SDS011;9607;51.600;7.558;2022-12-07T13:30:27;6.93;;;2.80;;
18947;SDS011;9607;51.600;7.558;2022-12-07T13:32:56;4.50;;;2.13;;
18947;SDS011;9607;51.600;7.558;2022-12-07T13:35:31;7.57;;;2.50;;
18947;SDS011;9607;51.600;7.558;2022-12-07T13:38:02;9.52;;;2.55;;
18947;SDS011;9607;51.600;7.558;2022-12-07T13:40:31;5.88;;;2.58;;
18947;SDS011;9607;51.600;7.558;2022-12-07T13:42:59;8.88;;;2.35;;
18947;SDS011;9607;51.600;7.558;2022-12-07T13:45:28;8.30;;;2.40;;
18947;SDS011;9607;51.600;7.558;2022-12-07T13:48:14;9.75;;;2.45;;
18947;SDS011;9607;51.600;7.558;2022-12-07T13:50:52;4.75;;;2.30;;
18947;SDS011;9607;51.600;7.558;2022-12-07T13:53:21;8.15;;;2.50;;
18947;SDS011;9607;51.600;7.558;2022-12-07T13:55:49;8.52;;;2.97;;
18947;SDS011;9607;51.600;7.558;2022-12-07T13:58:18;6.90;;;2.72;;
18947;SDS011;9607;51.600;7.558;2022-12-07T14:00:44;7.60;;;2.35;;
18947;SDS011;9607;51.600;7.558;2022-12-07T14:03:28;12.00;;;2.78;;
18947;SDS011;9607;51.600;7.558;2022-12-07T14:06:04;10.40;;;3.15;;
18947;SDS011;9607;51.600;7.558;2022-12-07T14:08:41;5.85;;;2.42;;
18947;SDS011;9607;51.600;7.558;2022-12-07T14:11:09;8.27;;;2.90;;
18947;SDS011;9607;51.600;7.558;2022-12-07T14:13:45;5.40;;;1.90;;
18947;SDS011;9607;51.600;7.558;2022-12-07T14:16:22;9.50;;;2.92;;
18947;SDS011;9607;51.600;7.558;2022-12-07T14:18:56;6.30;;;2.58;;
18947;SDS011;9607;51.600;7.558;2022-12-07T14:21:24;10.05;;;2.63;;
18947;SDS011;9607;51.600;7.558;2022-12-07T14:26:52;11.30;;;4.10;;
18947;SDS011;9607;51.600;7.558;2022-12-07T14:29:28;11.90;;;3.75;;
18947;SDS011;9607;51.600;7.558;2022-12-07T14:32:08;9.43;;;3.65;;
18947;SDS011;9607;51.600;7.558;2022-12-07T14:34:52;12.35;;;4.18;;
18947;SDS011;9607;51.600;7.558;2022-12-07T14:37:23;9.05;;;3.60;;
18947;SDS011;9607;51.600;7.558;2022-12-07T14:39:52;8.90;;;3.40;;
18947;SDS011;9607;51.600;7.558;2022-12-07T14:42:19;11.52;;;3.50;;
18947;SDS011;9607;51.600;7.558;2022-12-07T14:44:50;8.43;;;3.15;;
18947;SDS011;9607;51.600;7.558;2022-12-07T14:47:17;13.07;;;2.70;;
18947;SDS011;9607;51.600;7.558;2022-12-07T14:49:43;7.57;;;2.65;;
18947;SDS011;9607;51.600;7.558;2022-12-07T14:52:12;7.90;;;2.58;;
18947;SDS011;9607;51.600;7.558;2022-12-07T14:54:41;5.20;;;1.90;;
18947;SDS011;9607;51.600;7.558;2022-12-07T14:57:09;6.13;;;2.10;;
18947;SDS011;9607;51.600;7.558;2022-12-07T14:59:37;6.88;;;2.65;;
18947;SDS011;9607;51.600;7.558;2022-12-07T15:02:05;9.77;;;2.38;;
18947;SDS011;9607;51.600;7.558;2022-12-07T15:04:32;9.25;;;2.50;;
18947;SDS011;9607;51.600;7.558;2022-12-07T15:07:00;4.75;;;2.53;;
18947;SDS011;9607;51.600;7.558;2022-12-07T15:09:31;3.58;;;2.17;;
18947;SDS011;9607;51.600;7.558;2022-12-07T15:11:59;5.47;;;2.97;;
18947;SDS011;9607;51.600;7.558;2022-12-07T15:14:25;7.18;;;3.08;;
18947;SDS011;9607;51.600;7.558;2022-12-07T15:16:52;3.85;;;2.35;;
18947;SDS011;9607;51.600;7.558;2022-12-07T15:19:24;6.53;;;2.67;;
18947;SDS011;9607;51.600;7.558;2022-12-07T15:21:52;15.00;;;5.80;;
18947;SDS011;9607;51.600;7.558;2022-12-07T15:24:20;10.60;;;5.07;;
18947;SDS011;9607;51.600;7.558;2022-12-07T15:26:49;10.18;;;5.30;;
18947;SDS011;9607;51.600;7.558;2022-12-07T15:29:17;7.20;;;3.58;;
18947;SDS011;9607;51.600;7.558;2022-12-07T15:31:44;8.60;;;4.40;;